Time;durP1;ratioP1;P1;durP2;ratioP2;P2;SDS_P1;SDS_P2;PMS_P1;PMS_P2;Temp;Humidity;BMP_temperature;BMP_pressure;BME280_temperature;BME280_humidity;BME280_pressure;Samples;Min_cycle;Max_cycle;Signal;HPM_P1;HPM_P2
2023/02/17 00:01:32;;;;;;;36.70;21.65;;;9.40;99.90;;;-144.05;88.10;56940.16;5019983;28;20034;-82
2023/02/17 00:03:59;;;;;;;35.75;21.38;;;9.40;99.90;;;-144.05;88.63;56955.03;4987323;28;20038;-84
2023/02/17 00:06:31;;;;;;;36.33;21.05;;;9.40;99.90;;;-144.05;88.61;56923.19;5003404;28;20022;-84
2023/02/17 00:08:59;;;;;;;35.97;19.73;;;9.40;99.90;;;-144.05;88.30;56955.03;5006883;28;20029;-81
2023/02/17 00:11:27;;;;;;;33.33;20.58;;;9.50;99.90;;;-144.05;87.89;56931.66;5032172;28;20052;-81
2023/02/17 00:13:53;;;;;;;34.35;19.00;;;9.50;99.90;;;-144.05;88.25;56942.28;5035011;28;20097;-84
2023/02/17 00:16:24;;;;;;;33.47;19.85;;;9.60;99.90;;;-144.05;87.86;56910.44;5019151;28;20029;-82
2023/02/17 00:19:00;;;;;;;26.77;18.20;;;9.60;99.90;;;-144.05;87.51;56933.78;4998990;28;20061;-83
2023/02/17 00:22:01;;;;;;;30.42;19.73;;;9.60;99.90;;;-144.05;87.72;56921.06;4996253;28;20022;-83
2023/02/17 00:24:31;;;;;;;26.38;17.83;;;9.60;99.90;;;-144.05;88.08;56944.41;4981204;28;20379;-83
2023/02/17 00:26:57;;;;;;;33.00;18.90;;;9.60;99.90;;;-144.05;87.72;56927.41;4996584;28;20045;-83
2023/02/17 00:29:23;;;;;;;32.97;19.25;;;9.60;99.90;;;-144.05;87.83;56927.41;4996480;28;20025;-83
2023/02/17 00:31:53;;;;;;;30.70;18.30;;;9.60;99.90;;;-144.05;87.92;56935.91;4997061;28;20593;-83
2023/02/17 00:34:19;;;;;;;27.88;17.65;;;9.60;99.90;;;-144.05;87.62;56946.53;4996574;28;20577;-83
2023/02/17 00:36:45;;;;;;;29.48;17.85;;;9.70;99.90;;;-144.05;87.11;56914.69;5014584;28;20505;-81
2023/02/17 00:39:15;;;;;;;31.92;17.67;;;9.70;99.90;;;-144.05;87.14;56935.91;5014681;28;20042;-82
2023/02/17 00:41:42;;;;;;;23.95;16.73;;;9.70;99.90;;;-144.05;87.46;56929.53;5014180;28;20053;-84
2023/02/17 00:44:19;;;;;;;26.27;16.85;;;9.70;99.90;;;-144.05;87.88;56912.56;5014859;28;20026;-83
2023/02/17 00:46:46;;;;;;;27.10;16.35;;;9.70;99.90;;;-144.05;87.40;56921.06;5030901;28;20033;-82
2023/02/17 00:49:20;;;;;;;27.17;17.10;;;9.70;99.90;;;-144.05;87.18;56940.16;5004371;28;20030;-82
2023/02/17 00:51:47;;;;;;;31.98;17.48;;;9.80;99.90;;;-144.05;86.45;56925.28;4995455;28;20030;-82
2023/02/17 00:54:14;;;;;;;28.05;17.23;;;9.70;99.90;;;-144.05;86.80;56940.16;4995664;28;20068;-83
2023/02/17 00:56:40;;;;;;;28.73;16.90;;;9.70;99.90;;;-144.05;86.91;56921.06;5013631;28;20037;-83
2023/02/17 00:59:08;;;;;;;29.17;16.70;;;9.80;99.90;;;-144.05;87.04;56929.53;4996590;28;20482;-83
2023/02/17 01:01:34;;;;;;;25.58;16.75;;;9.80;99.90;;;-144.05;87.68;56948.66;4996837;28;20042;-82
2023/02/17 01:04:01;;;;;;;25.50;16.17;;;9.80;99.90;;;-144.05;87.50;56931.66;5013470;28;20041;-82
2023/02/17 01:06:36;;;;;;;28.67;15.93;;;9.80;99.90;;;-144.05;87.96;56906.19;4995904;28;20513;-84
2023/02/17 01:09:06;;;;;;;25.98;15.55;;;9.80;99.90;;;-144.05;87.54;56942.28;5013744;28;20022;-81
2023/02/17 01:11:35;;;;;;;23.00;15.57;;;9.80;99.90;;;-144.05;87.33;56946.53;5013097;28;20037;-81
2023/02/17 01:14:05;;;;;;;26.58;16.13;;;9.80;99.90;;;-144.05;86.98;56948.66;5012941;28;20033;-81
2023/02/17 01:16:39;;;;;;;23.98;15.75;;;9.80;99.90;;;-144.05;87.41;56961.41;5013239;28;20470;-81
2023/02/17 01:19:15;;;;;;;23.83;15.13;;;9.80;99.90;;;-144.05;87.04;56927.41;5013047;28;20041;-81
2023/02/17 01:21:41;;;;;;;22.70;15.43;;;9.90;99.90;;;-144.05;87.44;56927.41;4995532;28;20095;-81
2023/02/17 01:24:10;;;;;;;23.50;15.57;;;9.80;99.90;;;-144.05;87.45;56959.28;4997623;28;20073;-82
2023/02/17 01:26:38;;;;;;;22.83;15.05;;;9.80;99.90;;;-144.05;87.56;56933.78;5036769;28;20042;-81
2023/02/17 01:29:06;;;;;;;30.45;16.73;;;9.90;99.90;;;-144.05;87.25;56916.81;5019219;28;20026;-82
2023/02/17 01:31:32;;;;;;;23.98;16.15;;;9.90;99.90;;;-144.05;87.30;56929.53;5034782;28;20042;-82
2023/02/17 01:34:02;;;;;;;26.73;16.58;;;9.80;99.90;;;-144.05;87.43;56925.28;5004116;28;20100;-85
2023/02/17 01:36:28;;;;;;;25.25;15.93;;;9.80;99.90;;;-144.05;87.73;56950.78;4996638;28;20030;-83
2023/02/17 01:38:54;;;;;;;24.67;16.23;;;9.80;99.90;;;-144.05;88.20;56923.19;4996795;28;20517;-84
2023/02/17 01:41:25;;;;;;;27.08;16.95;;;9.90;99.90;;;-144.05;88.02;56938.03;4996983;28;20117;-82
2023/02/17 01:44:19;;;;;;;24.48;15.90;;;9.80;99.90;;;-144.05;88.07;56942.28;5014035;28;20030;-83
2023/02/17 01:46:53;;;;;;;26.38;14.98;;;9.80;99.90;;;-144.05;88.17;56923.19;4996326;28;20092;-82
2023/02/17 01:49:40;;;;;;;24.88;15.55;;;9.80;99.90;;;-144.05;88.74;56927.41;5046819;22;20026;-79
2023/02/17 01:52:19;;;;;;;26.77;16.30;;;9.80;99.90;;;-144.05;88.03;56950.78;5056156;28;20025;-81
2023/02/17 01:55:02;;;;;;;28.75;17.25;;;9.80;99.90;;;-144.05;88.52;56959.28;5055842;28;20028;-81
2023/02/17 01:57:36;;;;;;;28.65;17.58;;;9.80;99.90;;;-144.05;88.64;56944.41;5055645;28;20077;-81
2023/02/17 02:00:08;;;;;;;27.10;17.52;;;9.80;99.90;;;-144.05;88.56;56942.28;5038356;28;20022;-80
2023/02/17 02:02:34;;;;;;;28.88;18.38;;;9.80;99.90;;;-144.05;89.26;56935.91;5038519;28;20036;-80
2023/02/17 02:05:02;;;;;;;22.70;16.70;;;9.80;99.90;;;-144.05;89.29;56935.91;5055625;28;20033;-78
2023/02/17 02:07:37;;;;;;;26.63;16.85;;;9.80;99.90;;;-144.05;88.79;56927.41;5038203;28;20030;-80
2023/02/17 02:10:05;;;;;;;24.02;17.50;;;9.80;99.90;;;-144.05;88.85;56957.16;5055239;28;20067;-81
2023/02/17 02:12:37;;;;;;;26.38;18.10;;;9.80;99.90;;;-144.05;89.46;56946.53;5055211;28;20045;-76
2023/02/17 02:15:21;;;;;;;23.90;16.33;;;9.70;99.90;;;-144.05;89.76;56918.94;5038447;28;20025;-77
2023/02/17 02:18:31;;;;;;;26.67;16.75;;;9.80;99.90;;;-144.05;89.28;56942.28;5038288;28;20026;-80
2023/02/17 02:21:27;;;;;;;23.55;17.40;;;9.80;99.90;;;-144.05;89.31;56927.41;5055931;28;20021;-79
2023/02/17 02:24:33;;;;;;;23.92;16.08;;;9.70;99.90;;;-144.05;89.41;56952.91;5038539;28;20026;-80
2023/02/17 02:27:31;;;;;;;24.60;16.37;;;9.70;99.90;;;-144.05;89.33;56929.53;5037858;28;20029;-80
2023/02/17 02:30:40;;;;;;;22.58;15.85;;;9.70;99.90;;;-144.05;89.11;56952.91;5055545;28;20044;-77
2023/02/17 02:33:33;;;;;;;23.92;16.38;;;9.70;99.90;;;-144.05;89.03;56918.94;5055842;28;20025;-79
2023/02/17 02:36:30;;;;;;;24.25;17.00;;;9.70;99.90;;;-144.05;89.14;56935.91;5058446;28;20025;-78
2023/02/17 02:39:10;;;;;;;24.00;16.40;;;9.70;99.90;;;-144.05;89.73;56938.03;5035568;28;20039;-79
2023/02/17 02:42:00;;;;;;;25.00;18.05;;;9.70;99.90;;;-144.05;89.19;56929.53;5038474;28;20052;-79
2023/02/17 02:44:26;;;;;;;22.77;16.65;;;9.70;99.90;;;-144.05;89.56;56942.28;5059285;28;20026;-78
2023/02/17 02:47:23;;;;;;;23.38;16.25;;;9.70;99.90;;;-144.05;90.02;56942.28;5059277;28;20190;-77
2023/02/17 02:49:49;;;;;;;22.45;15.70;;;9.70;99.90;;;-144.05;89.52;56921.06;5058686;28;20045;-79
2023/02/17 02:53:27;;;;;;;27.20;18.08;;;9.70;99.90;;;-144.05;89.57;56963.53;5059062;28;20081;-78
2023/02/17 02:56:11;;;;;;;23.30;16.45;;;9.70;99.90;;;-144.05;89.75;56942.28;4999446;28;20045;-78
2023/02/17 02:59:03;;;;;;;24.42;16.77;;;9.80;99.90;;;-144.05;89.32;56931.66;5058860;28;20037;-78
2023/02/17 03:01:52;;;;;;;25.80;15.68;;;9.80;99.90;;;-144.05;88.50;56931.66;5041404;28;20089;-78
2023/02/17 03:04:26;;;;;;;21.38;15.23;;;9.80;99.90;;;-144.05;87.82;56955.03;5041487;28;20176;-76
2023/02/17 03:07:06;;;;;;;21.83;15.68;;;9.90;99.90;;;-144.05;87.32;56944.41;5041673;28;20022;-77
2023/02/17 03:09:33;;;;;;;20.30;14.55;;;10.00;99.90;;;-144.05;86.99;56946.53;5040985;28;20021;-80
2023/02/17 03:11:59;;;;;;;21.15;13.55;;;10.00;99.90;;;-144.05;86.81;56946.53;5050828;28;20081;-78
2023/02/17 03:14:27;;;;;;;20.23;13.20;;;10.00;99.90;;;-144.05;86.52;56944.41;5041601;28;20034;-80
2023/02/17 03:16:54;;;;;;;19.73;13.10;;;10.10;99.90;;;-144.05;85.90;56929.53;5058839;28;20030;-78
2023/02/17 03:19:25;;;;;;;18.88;13.00;;;10.10;99.90;;;-144.05;85.62;56938.03;5058414;28;20056;-80
2023/02/17 03:22:20;;;;;;;18.73;13.23;;;10.20;99.90;;;-144.05;84.67;56940.16;5058533;28;20056;-81
2023/02/17 03:24:46;;;;;;;17.05;12.23;;;10.10;99.90;;;-144.05;84.35;56946.53;5057110;28;20105;-82
2023/02/17 03:27:12;;;;;;;16.23;12.50;;;10.10;99.90;;;-144.05;84.71;56914.69;5039048;28;20102;-83
2023/02/17 03:29:39;;;;;;;16.30;12.15;;;10.10;99.90;;;-144.05;85.04;56940.16;5018215;28;20124;-84
2023/02/17 03:32:05;;;;;;;18.67;12.65;;;10.10;99.90;;;-144.05;84.85;56918.94;5036319;28;20393;-82
2023/02/17 03:34:32;;;;;;;16.52;11.70;;;10.10;99.90;;;-144.05;84.30;56938.03;5036251;28;20033;-82
2023/02/17 03:36:58;;;;;;;15.73;11.70;;;10.10;99.90;;;-144.05;84.67;56927.41;5036363;28;20022;-80
2023/02/17 03:39:23;;;;;;;19.20;12.85;;;10.20;99.90;;;-144.05;84.02;56938.03;5017698;28;20087;-79
2023/02/17 03:41:50;;;;;;;14.18;11.25;;;10.20;99.90;;;-144.05;83.89;56938.03;5017361;28;20040;-83
2023/02/17 03:44:19;;;;;;;17.63;12.23;;;10.20;99.90;;;-144.05;83.79;56925.28;5017565;28;20034;-81
2023/02/17 03:46:46;;;;;;;15.02;10.32;;;10.20;99.90;;;-144.05;83.83;56927.41;5016185;28;20116;-84
2023/02/17 03:49:12;;;;;;;15.13;11.40;;;10.20;99.90;;;-144.05;83.83;56955.03;5033618;28;20075;-81
2023/02/17 03:51:38;;;;;;;13.85;10.32;;;10.30;99.90;;;-144.05;83.82;56904.06;5017255;28;20083;-81
2023/02/17 03:54:05;;;;;;;16.30;10.38;;;10.20;99.90;;;-144.05;83.10;56948.66;5035356;28;20037;-81
2023/02/17 03:56:31;;;;;;;16.42;11.98;;;10.30;99.90;;;-144.05;82.84;56910.44;5017254;28;20030;-83
2023/02/17 03:58:57;;;;;;;17.25;10.35;;;10.30;99.90;;;-144.05;82.88;56918.94;5034942;28;20114;-80
2023/02/17 04:01:23;;;;;;;12.80;10.23;;;10.30;99.90;;;-144.05;82.79;56912.56;5035367;28;20029;-85
2023/02/17 04:03:50;;;;;;;16.30;10.88;;;10.30;99.90;;;-144.05;82.77;56925.28;5035152;28;20428;-82
2023/02/17 04:06:16;;;;;;;12.40;10.20;;;10.30;99.90;;;-144.05;82.37;56935.91;5035014;28;20028;-82
2023/02/17 04:08:42;;;;;;;13.88;10.93;;;10.30;99.90;;;-144.05;82.50;56950.78;5035882;28;20028;-82
2023/02/17 04:11:10;;;;;;;16.00;10.52;;;10.30;99.90;;;-144.05;82.84;56933.78;5035605;28;20447;-82
2023/02/17 04:13:37;;;;;;;13.25;10.38;;;10.30;99.90;;;-144.05;82.52;56923.19;5020680;28;20025;-84
2023/02/17 04:16:08;;;;;;;15.68;10.43;;;10.30;99.90;;;-144.05;82.77;56950.78;5020116;28;20120;-81
2023/02/17 04:18:35;;;;;;;14.35;9.43;;;10.30;99.90;;;-144.05;82.65;56925.28;5033871;28;20033;-81
2023/02/17 04:21:02;;;;;;;14.68;10.13;;;10.40;99.90;;;-144.05;82.51;56967.78;5035149;28;20021;-80
2023/02/17 04:23:27;;;;;;;11.45;9.45;;;10.40;99.90;;;-144.05;82.22;56927.41;5034150;28;20029;-79
2023/02/17 04:25:54;;;;;;;14.75;10.32;;;10.40;99.90;;;-144.05;81.78;56931.66;5034674;28;20155;-82
2023/02/17 04:28:21;;;;;;;13.65;10.10;;;10.40;99.90;;;-144.05;81.87;56938.03;5033665;28;20025;-81
2023/02/17 04:30:49;;;;;;;15.15;9.73;;;10.50;99.90;;;-144.05;82.02;56938.03;5016116;28;20029;-83
2023/02/17 04:33:17;;;;;;;14.77;9.07;;;10.40;99.90;;;-144.05;81.53;56912.56;5034820;28;20371;-80
2023/02/17 04:35:43;;;;;;;12.95;10.07;;;10.50;99.90;;;-144.05;81.79;56944.41;5033864;28;20033;-80
2023/02/17 04:38:10;;;;;;;11.23;9.57;;;10.40;99.90;;;-144.05;81.50;56918.94;5016184;28;20090;-82
2023/02/17 04:40:37;;;;;;;12.05;9.13;;;10.50;99.90;;;-144.05;81.57;56929.53;5034628;28;20030;-81
2023/02/17 04:43:04;;;;;;;11.85;8.55;;;10.50;99.90;;;-144.05;81.55;56942.28;5016136;28;20029;-81
2023/02/17 04:45:30;;;;;;;14.55;9.18;;;10.50;99.90;;;-144.05;81.58;56952.91;5016291;28;20033;-81
2023/02/17 04:47:56;;;;;;;12.68;9.25;;;10.50;99.90;;;-144.05;81.55;56938.03;5016502;28;20532;-80
2023/02/17 04:50:23;;;;;;;12.55;9.68;;;10.50;99.90;;;-144.05;81.15;56929.53;5034188;28;20057;-80
2023/02/17 04:52:48;;;;;;;13.38;8.85;;;10.50;99.90;;;-144.05;80.87;56944.41;5016304;28;20041;-81
2023/02/17 04:55:14;;;;;;;12.68;9.43;;;10.50;99.90;;;-144.05;81.09;56967.78;5034140;28;20034;-82
2023/02/17 04:57:40;;;;;;;13.43;8.90;;;10.60;99.90;;;-144.05;80.80;56933.78;5015967;28;20033;-81
2023/02/17 05:00:08;;;;;;;14.93;9.75;;;10.60;99.90;;;-144.05;79.69;56952.91;5034141;28;20036;-82
2023/02/17 05:02:34;;;;;;;11.77;9.35;;;10.60;99.90;;;-144.05;79.76;56959.28;5016323;28;20037;-80
2023/02/17 05:05:00;;;;;;;11.02;8.73;;;10.60;99.90;;;-144.05;79.50;56931.66;5034216;28;20095;-84
2023/02/17 05:07:25;;;;;;;13.88;9.27;;;10.50;99.90;;;-144.05;79.38;56942.28;5016232;28;20052;-83
2023/02/17 05:09:52;;;;;;;15.80;10.18;;;10.50;99.90;;;-144.05;79.17;56923.19;5034189;28;20473;-82
2023/02/17 05:12:19;;;;;;;11.13;8.70;;;10.50;99.90;;;-144.05;79.35;56946.53;5016554;28;20457;-81
2023/02/17 05:14:45;;;;;;;11.88;8.10;;;10.50;99.90;;;-144.05;79.05;56916.81;5017212;28;20469;-82
2023/02/17 05:17:11;;;;;;;11.95;8.80;;;10.50;99.90;;;-144.05;79.32;56933.78;5017609;28;20083;-82
2023/02/17 05:19:37;;;;;;;12.05;9.05;;;10.60;99.90;;;-144.05;79.23;56938.03;5036564;28;20041;-81
2023/02/17 05:22:03;;;;;;;12.57;9.20;;;10.60;99.90;;;-144.05;78.84;56946.53;5022750;28;20043;-83
2023/02/17 05:24:29;;;;;;;10.68;8.40;;;10.60;99.90;;;-144.05;78.51;56931.66;5037708;28;20033;-83
2023/02/17 05:26:54;;;;;;;11.90;8.63;;;10.60;99.90;;;-144.05;78.62;56938.03;5021313;28;20026;-84
2023/02/17 05:29:22;;;;;;;11.35;8.70;;;10.60;99.90;;;-144.05;78.60;56914.69;5038227;28;20018;-83
2023/02/17 05:31:48;;;;;;;11.23;8.57;;;10.60;99.90;;;-144.05;78.51;56933.78;5020394;28;20092;-82
2023/02/17 05:34:13;;;;;;;12.38;8.10;;;10.60;99.90;;;-144.05;78.81;56921.06;5021971;28;20074;-84
2023/02/17 05:36:39;;;;;;;11.82;8.30;;;10.60;99.90;;;-144.05;78.43;56946.53;5051005;28;20013;-81
2023/02/17 05:39:05;;;;;;;10.48;8.18;;;10.60;99.90;;;-144.05;78.04;56961.41;5047327;28;20044;-85
2023/02/17 05:41:31;;;;;;;10.65;9.02;;;10.60;99.90;;;-144.05;78.78;56942.28;5040605;28;20040;-82
2023/02/17 05:43:58;;;;;;;12.07;9.13;;;10.60;99.90;;;-144.05;78.55;56946.53;5021290;28;20022;-82
2023/02/17 05:46:24;;;;;;;12.02;8.57;;;10.60;99.90;;;-144.05;78.31;56955.03;5024624;28;20087;-81
2023/02/17 05:48:50;;;;;;;11.98;9.30;;;10.60;99.90;;;-144.05;78.71;56916.81;5036743;28;20101;-82
2023/02/17 05:51:16;;;;;;;13.30;9.38;;;10.60;99.90;;;-144.05;78.97;56950.78;5035674;28;20099;-81
2023/02/17 05:53:43;;;;;;;14.60;10.57;;;10.60;99.90;;;-144.05;79.65;56961.41;5018930;28;20484;-82
2023/02/17 05:56:09;;;;;;;14.02;10.10;;;10.70;99.90;;;-144.05;79.58;56921.06;5036574;28;20025;-81
2023/02/17 05:58:35;;;;;;;14.80;10.13;;;10.70;99.90;;;-144.05;78.97;56952.91;5038084;28;20103;-84
2023/02/17 06:01:05;;;;;;;13.20;10.30;;;10.70;99.90;;;-144.05;79.08;56929.53;5038521;28;20029;-84
2023/02/17 06:03:33;;;;;;;13.90;10.90;;;10.70;99.90;;;-144.05;79.92;56946.53;5039662;28;20047;-83
2023/02/17 06:05:58;;;;;;;13.55;10.13;;;10.70;99.90;;;-144.05;79.50;56931.66;5038810;28;20029;-82
2023/02/17 06:08:24;;;;;;;12.65;10.18;;;10.70;99.90;;;-144.05;80.27;56904.06;5038632;28;20040;-82
2023/02/17 06:10:53;;;;;;;15.70;9.85;;;10.70;99.90;;;-144.05;79.87;56969.91;5042885;28;20025;-83
2023/02/17 06:13:20;;;;;;;14.60;10.88;;;10.70;99.90;;;-144.05;80.00;56935.91;5043589;28;20108;-81
2023/02/17 06:15:47;;;;;;;13.40;10.30;;;10.70;99.90;;;-144.05;79.34;56929.53;5027123;28;20041;-85
2023/02/17 06:18:13;;;;;;;13.40;10.20;;;10.70;99.90;;;-144.05;79.58;56935.91;5045066;28;20497;-83
2023/02/17 06:20:39;;;;;;;15.90;10.60;;;10.70;99.90;;;-144.05;79.75;56948.66;5045226;28;20405;-83
2023/02/17 06:23:05;;;;;;;12.90;10.10;;;10.70;99.90;;;-144.05;80.19;56935.91;5044628;28;20033;-83
2023/02/17 06:25:31;;;;;;;18.15;10.68;;;10.70;99.90;;;-144.05;80.42;56927.41;5027459;28;20029;-82
2023/02/17 06:27:57;;;;;;;14.88;10.32;;;10.70;99.90;;;-144.05;80.31;56925.28;5026465;28;20079;-82
2023/02/17 06:30:23;;;;;;;15.07;10.55;;;10.70;99.90;;;-144.05;80.49;56938.03;5040939;28;20044;-83
2023/02/17 06:32:49;;;;;;;15.50;11.85;;;10.70;99.90;;;-144.05;80.37;56959.28;5040532;28;20077;-82
2023/02/17 06:35:16;;;;;;;13.07;10.20;;;10.70;99.90;;;-144.05;80.94;56904.06;5023357;28;20057;-81
2023/02/17 06:37:42;;;;;;;14.95;10.50;;;10.70;99.90;;;-144.05;80.84;56963.53;5024210;28;20034;-81
2023/02/17 06:40:09;;;;;;;14.60;10.57;;;10.70;99.90;;;-144.05;79.89;56921.06;5026398;28;20056;-86
2023/02/17 06:42:35;;;;;;;15.93;10.13;;;10.70;99.90;;;-144.05;80.85;56938.03;5025192;28;20029;-80
2023/02/17 06:45:04;;;;;;;16.00;10.10;;;10.70;99.90;;;-144.05;80.90;56921.06;5047540;28;20032;-81
2023/02/17 06:47:34;;;;;;;16.30;10.52;;;10.70;99.90;;;-144.05;81.30;56921.06;5029916;28;20022;-83
2023/02/17 06:50:01;;;;;;;15.30;10.60;;;10.70;99.90;;;-144.05;81.43;56938.03;5046151;28;20033;-81
2023/02/17 06:52:27;;;;;;;14.80;10.57;;;10.70;99.90;;;-144.05;81.19;56940.16;5028332;28;20119;-83
2023/02/17 06:54:53;;;;;;;15.45;10.25;;;10.70;99.90;;;-144.05;81.49;56952.91;5030853;28;20133;-83
2023/02/17 06:57:19;;;;;;;17.42;11.20;;;10.70;99.90;;;-144.05;80.84;56918.94;5052576;28;20029;-82
2023/02/17 06:59:45;;;;;;;13.20;9.82;;;10.80;99.90;;;-144.05;81.36;56944.41;5035951;28;20044;-81
2023/02/17 07:02:13;;;;;;;14.38;10.48;;;10.80;99.90;;;-144.05;81.82;56935.91;5037375;28;20026;-80
2023/02/17 07:04:42;;;;;;;15.07;11.40;;;10.70;99.90;;;-144.05;82.17;56944.41;5050480;28;20113;-83
2023/02/17 07:07:09;;;;;;;14.52;11.05;;;10.70;99.90;;;-144.05;82.31;56925.28;5046775;28;20515;-80
2023/02/17 07:09:36;;;;;;;13.43;10.70;;;10.70;99.90;;;-144.05;83.46;56942.28;5024654;28;20030;-81
2023/02/17 07:12:02;;;;;;;15.48;10.95;;;10.70;99.90;;;-144.05;83.83;56942.28;5042554;28;20093;-83
2023/02/17 07:14:28;;;;;;;15.45;11.85;;;10.60;99.90;;;-144.05;85.34;56942.28;5025993;28;20029;-81
2023/02/17 07:16:54;;;;;;;17.90;11.57;;;10.60;99.90;;;-144.05;85.84;56935.91;5032268;28;20036;-78
2023/02/17 07:19:20;;;;;;;17.75;11.98;;;10.50;99.90;;;-144.05;86.49;56938.03;5048625;28;20108;-80
2023/02/17 07:21:46;;;;;;;17.00;11.98;;;10.50;99.90;;;-144.05;86.25;56893.44;5049256;28;20037;-81
2023/02/17 07:24:12;;;;;;;16.77;13.25;;;10.40;99.90;;;-144.05;86.26;56940.16;5030704;28;20041;-82
2023/02/17 07:26:40;;;;;;;16.67;12.52;;;10.40;99.90;;;-144.05;87.20;56923.19;5047266;28;20465;-81
2023/02/17 07:29:07;;;;;;;17.08;12.52;;;10.30;99.90;;;-144.05;87.39;56940.16;5029874;28;20022;-81
2023/02/17 07:31:34;;;;;;;16.17;13.35;;;10.30;99.90;;;-144.05;87.74;56935.91;5030549;28;20032;-79
2023/02/17 07:34:03;;;;;;;16.20;12.02;;;10.30;99.90;;;-144.05;88.03;56955.03;5026806;28;20477;-81
2023/02/17 07:36:29;;;;;;;18.38;12.60;;;10.30;99.90;;;-144.05;87.96;56952.91;5046508;28;20053;-82
2023/02/17 07:38:55;;;;;;;14.70;10.63;;;10.40;99.90;;;-144.05;88.56;56946.53;5046393;28;20028;-80
2023/02/17 07:41:27;;;;;;;16.25;11.57;;;10.30;99.90;;;-144.05;88.36;56933.78;5026919;28;20100;-80
2023/02/17 07:43:56;;;;;;;18.95;12.73;;;10.30;99.90;;;-144.05;88.43;56938.03;5027472;28;20044;-80
2023/02/17 07:46:23;;;;;;;21.58;13.30;;;10.30;99.90;;;-144.05;88.53;56929.53;5027849;28;20030;-81
2023/02/17 07:48:49;;;;;;;18.40;12.82;;;10.30;99.90;;;-144.05;88.81;56946.53;5027439;28;20041;-81
2023/02/17 07:51:20;;;;;;;18.35;12.40;;;10.40;99.90;;;-144.05;88.48;56931.66;5027453;28;20477;-81
2023/02/17 07:53:50;;;;;;;15.50;11.70;;;10.40;99.90;;;-144.05;88.42;56950.78;5028921;28;20033;-81
2023/02/17 07:56:21;;;;;;;15.90;11.93;;;10.40;99.90;;;-144.05;87.95;56959.28;5044520;28;20025;-81
2023/02/17 07:58:48;;;;;;;16.50;11.77;;;10.40;99.90;;;-144.05;87.75;56955.03;5026637;28;20029;-81
2023/02/17 08:01:21;;;;;;;18.27;12.55;;;10.40;99.90;;;-144.05;88.08;56933.78;5031331;28;20025;-81
2023/02/17 08:03:48;;;;;;;18.42;13.25;;;10.50;99.90;;;-144.05;87.22;56940.16;5039591;23;20048;-77
2023/02/17 08:06:26;;;;;;;13.45;11.23;;;10.50;99.90;;;-144.05;87.21;56935.91;5021172;28;20038;-77
2023/02/17 08:14:29;;;;;;;16.92;11.15;;;10.60;99.90;;;-144.05;86.09;56942.28;5018363;28;19916;-78
2023/02/17 08:16:56;;;;;;;14.88;11.13;;;10.70;99.90;;;-144.05;85.82;56952.91;5019772;28;20107;-77
2023/02/17 08:19:22;;;;;;;13.95;11.13;;;10.80;99.90;;;-144.05;85.47;56916.81;5020027;28;20096;-78
2023/02/17 08:21:48;;;;;;;15.13;11.20;;;10.80;99.90;;;-144.05;84.87;56933.78;5036159;28;20026;-77
2023/02/17 08:24:21;;;;;;;19.52;11.77;;;10.80;99.90;;;-144.05;84.90;56959.28;5020403;28;20041;-79
2023/02/17 08:26:48;;;;;;;15.63;9.93;;;10.80;99.90;;;-144.05;84.60;56935.91;5017885;28;20030;-78
2023/02/17 08:29:14;;;;;;;14.40;10.50;;;10.90;99.90;;;-144.05;84.76;56921.06;5033829;28;20135;-78
2023/02/17 08:31:41;;;;;;;12.50;10.20;;;10.90;99.90;;;-144.05;84.29;56946.53;5017934;28;20030;-77
2023/02/17 08:34:11;;;;;;;13.75;9.45;;;10.90;99.90;;;-144.05;84.21;56961.41;5017630;28;20026;-78
2023/02/17 08:36:37;;;;;;;13.35;9.55;;;11.00;99.90;;;-144.05;84.74;56948.66;5019034;28;20030;-78
2023/02/17 08:39:10;;;;;;;13.60;9.23;;;11.00;99.90;;;-144.05;84.19;56940.16;5033248;28;20056;-77
2023/02/17 08:41:39;;;;;;;12.68;9.18;;;11.00;99.90;;;-144.05;84.72;56942.28;5034081;28;20037;-78
2023/02/17 08:44:16;;;;;;;14.30;9.18;;;11.10;99.90;;;-144.05;83.96;56946.53;5019147;28;20033;-78
2023/02/17 08:46:46;;;;;;;14.93;9.48;;;11.10;99.90;;;-144.05;84.10;56940.16;5018806;28;20397;-78
2023/02/17 08:49:15;;;;;;;11.93;8.68;;;11.10;99.90;;;-144.05;84.38;56959.28;5019322;28;20026;-77
2023/02/17 08:51:41;;;;;;;13.55;8.75;;;11.10;99.90;;;-144.05;83.73;56959.28;5033745;28;20030;-78
2023/02/17 08:54:09;;;;;;;13.07;8.85;;;11.10;99.90;;;-144.05;83.56;56950.78;5019604;28;20033;-78
2023/02/17 08:56:39;;;;;;;12.07;8.48;;;11.20;99.90;;;-144.05;83.26;56944.41;5033866;28;20026;-78
2023/02/17 08:59:09;;;;;;;11.88;9.18;;;11.20;99.90;;;-144.05;83.71;56950.78;5018562;28;20026;-78
2023/02/17 09:01:37;;;;;;;13.30;8.10;;;11.30;99.90;;;-144.05;83.47;56942.28;5019334;28;20084;-78
2023/02/17 09:04:07;;;;;;;13.90;9.18;;;11.30;99.90;;;-144.05;83.09;56942.28;5017356;28;20089;-77
2023/02/17 09:06:44;;;;;;;11.57;8.50;;;11.30;99.90;;;-144.05;83.07;56914.69;5020688;28;20030;-78
2023/02/17 09:09:16;;;;;;;13.55;9.00;;;11.30;99.90;;;-144.05;82.53;56959.28;5020718;28;20033;-78
2023/02/17 09:11:43;;;;;;;14.35;8.27;;;11.40;99.90;;;-144.05;81.77;56944.41;5023394;28;20426;-77
2023/02/17 09:14:09;;;;;;;11.50;8.05;;;11.40;99.90;;;-144.05;81.21;56935.91;5038063;28;20029;-79
2023/02/17 09:16:38;;;;;;;11.43;8.27;;;11.50;99.90;;;-144.05;81.33;56948.66;5022077;28;20056;-79
2023/02/17 09:19:05;;;;;;;11.25;8.23;;;11.60;99.90;;;-144.05;80.93;56921.06;5021497;28;20030;-78
2023/02/17 09:21:31;;;;;;;9.75;7.55;;;11.60;99.90;;;-144.05;80.57;56935.91;5021767;28;20112;-79
2023/02/17 09:23:57;;;;;;;13.05;7.72;;;11.60;99.90;;;-144.05;80.08;56948.66;5021619;28;20042;-78
2023/02/17 09:26:23;;;;;;;9.18;6.60;;;11.60;99.90;;;-144.05;79.92;56927.41;5036692;28;20041;-79
2023/02/17 09:28:49;;;;;;;9.35;6.63;;;11.70;99.90;;;-144.05;79.88;56938.03;5036929;28;20057;-78
2023/02/17 09:31:25;;;;;;;10.40;7.18;;;11.70;99.90;;;-144.05;79.69;56950.78;5021660;28;20030;-78
2023/02/17 09:33:52;;;;;;;10.60;7.25;;;11.80;99.90;;;-144.05;79.33;56927.41;5020250;28;20037;-78
2023/02/17 09:36:32;;;;;;;11.77;6.97;;;11.80;99.90;;;-144.05;78.88;56944.41;5019743;28;20033;-78
2023/02/17 09:38:59;;;;;;;9.00;6.63;;;11.90;99.90;;;-144.05;78.78;56929.53;5017371;28;20064;-77
2023/02/17 09:41:50;;;;;;;9.55;6.78;;;11.90;99.90;;;-144.05;77.86;56952.91;5021005;28;20349;-78
2023/02/17 09:44:37;;;;;;;10.68;6.47;;;12.00;99.90;;;-144.05;78.78;56933.78;5020475;28;20135;-78
2023/02/17 09:47:18;;;;;;;9.52;6.78;;;12.00;99.90;;;-144.05;78.75;56929.53;5023812;28;20460;-78
2023/02/17 09:50:04;;;;;;;10.10;6.97;;;12.10;99.90;;;-144.05;77.88;56925.28;5025621;28;20084;-80
2023/02/17 09:53:01;;;;;;;10.95;6.72;;;12.10;99.90;;;-144.05;77.68;56938.03;5020401;28;20088;-78
2023/02/17 09:55:37;;;;;;;9.85;7.32;;;12.20;99.90;;;-144.05;77.76;56916.81;5020541;28;20030;-77
2023/02/17 09:58:18;;;;;;;;;;;12.30;99.90;;;-144.05;76.77;56944.41;5023356;28;20081;-79
2023/02/17 10:00:55;;;;;;;8.65;5.97;;;12.40;99.90;;;-144.05;76.37;56944.41;5022973;28;19955;-79
2023/02/17 10:03:31;;;;;;;9.07;6.35;;;12.40;99.90;;;-144.05;75.80;56940.16;5022642;28;20044;-79
2023/02/17 10:06:43;;;;;;;8.55;6.07;;;12.50;99.90;;;-144.05;75.46;56929.53;5021116;28;20405;-77
2023/02/17 10:09:31;;;;;;;7.35;5.70;;;12.60;99.90;;;-144.05;75.10;56940.16;5039112;28;20036;-78
2023/02/17 10:12:16;;;;;;;10.23;6.53;;;12.60;99.90;;;-144.05;74.91;56946.53;5038351;28;20030;-76
2023/02/17 10:14:50;;;;;;;8.57;5.93;;;12.70;99.90;;;-144.05;74.02;56931.66;5024745;28;20056;-79
2023/02/17 10:17:39;;;;;;;8.25;5.95;;;12.70;99.90;;;-144.05;73.99;56929.53;5023928;28;20490;-77
2023/02/17 10:20:47;;;;;;;8.38;5.63;;;12.70;99.90;;;-144.05;74.02;56952.91;5022028;28;20057;-79